Time;durP1;ratioP1;P1;durP2;ratioP2;P2;SDS_P1;SDS_P2;PMS_P1;PMS_P2;Temp;Humidity;BMP_temperature;BMP_pressure;BME280_temperature;BME280_humidity;BME280_pressure;Samples;Min_cycle;Max_cycle;Signal;HPM_P1;HPM_P2
2022/03/10 00:00:14;;;;;;;3.07;2.87;;;7.30;99.90;7.40;102191.00;;;;5115343;28;20173;-70
2022/03/10 00:02:48;;;;;;;2.47;0.83;;;7.20;99.90;7.50;102191.00;;;;5115102;28;20171;-70
2022/03/10 00:05:18;;;;;;;2.13;1.60;;;7.20;99.90;7.40;102189.00;;;;5098302;28;20180;-71
2022/03/10 00:07:47;;;;;;;2.90;2.40;;;7.30;99.90;7.70;102189.00;;;;5098151;28;20183;-71
2022/03/10 00:10:13;;;;;;;0.27;0.27;;;7.30;99.90;7.50;102185.00;;;;5098040;28;20587;-71
2022/03/10 00:12:53;;;;;;;3.20;3.00;;;7.30;99.90;7.40;102184.00;;;;5114759;28;20212;-69
2022/03/10 00:15:23;;;;;;;1.03;0.83;;;7.30;99.90;7.30;102181.00;;;;5115406;28;20180;-70
2022/03/10 00:17:50;;;;;;;2.40;2.13;;;7.20;99.90;7.40;102174.00;;;;5097817;28;20180;-70
2022/03/10 00:20:16;;;;;;;13.13;11.90;;;7.20;99.90;7.20;102169.00;;;;5114906;28;20212;-70
2022/03/10 00:22:53;;;;;;;1.43;1.43;;;7.10;99.90;7.20;102180.00;;;;5097591;28;20183;-71
2022/03/10 00:25:48;;;;;;;4.23;1.33;;;7.10;99.90;6.90;102184.00;;;;5097672;28;20541;-71
2022/03/10 00:28:20;;;;;;;8.00;1.27;;;7.10;99.90;7.40;102183.00;;;;5114602;28;20204;-70
2022/03/10 00:30:58;;;;;;;13.80;6.17;;;7.10;99.90;7.50;102197.00;;;;5114435;28;20300;-70
2022/03/10 00:33:27;;;;;;;1.33;1.27;;;7.20;99.90;7.40;102194.00;;;;5098464;28;20192;-70
2022/03/10 00:35:56;;;;;;;1.30;1.30;;;7.30;99.90;7.30;102191.00;;;;5114551;28;20186;-70
2022/03/10 00:38:24;;;;;;;3.90;3.60;;;7.20;99.90;7.40;102156.00;;;;5114672;28;20177;-70
2022/03/10 00:40:53;;;;;;;4.87;3.13;;;7.30;99.90;7.00;102151.00;;;;5097774;28;20178;-70
2022/03/10 00:43:21;;;;;;;3.90;2.80;;;7.20;99.90;7.20;102153.00;;;;5114393;28;20188;-70
2022/03/10 00:45:52;;;;;;;2.27;2.07;;;7.10;99.90;6.90;102188.00;;;;5114429;28;20188;-70
2022/03/10 00:48:20;;;;;;;0.80;0.80;;;7.10;99.90;7.00;102185.00;;;;5114148;28;20172;-70
2022/03/10 00:50:51;;;;;;;9.87;4.43;;;7.00;99.90;7.10;102182.00;;;;5114760;28;20526;-70
2022/03/10 00:53:20;;;;;;;2.10;2.00;;;7.00;99.90;6.60;102191.00;;;;5097292;28;20172;-70
2022/03/10 00:55:49;;;;;;;4.07;1.30;;;6.90;99.90;6.70;102182.00;;;;5113236;28;20175;-70
2022/03/10 00:58:14;;;;;;;0.60;0.60;;;6.80;99.90;6.80;102190.00;;;;5097267;28;20178;-70
2022/03/10 01:00:43;;;;;;;1.70;1.60;;;6.90;99.90;6.80;102184.00;;;;5097195;28;20229;-71
2022/03/10 01:03:14;;;;;;;2.10;2.00;;;6.90;99.90;7.00;102184.00;;;;5097478;28;20627;-70
2022/03/10 01:05:40;;;;;;;2.47;2.40;;;7.00;99.90;7.10;102186.00;;;;5114153;28;20215;-70
2022/03/10 01:08:09;;;;;;;1.23;1.13;;;7.00;99.90;6.90;102167.00;;;;5096529;28;20215;-70
2022/03/10 01:10:35;;;;;;;0.97;0.97;;;6.90;99.90;7.00;102182.00;;;;5096548;28;20721;-70
2022/03/10 01:13:03;;;;;;;4.97;1.07;;;6.90;99.90;7.00;102176.00;;;;5113550;28;20234;-70
2022/03/10 01:15:29;;;;;;;4.03;3.73;;;6.90;99.90;7.10;102133.00;;;;5113685;28;20640;-70
2022/03/10 01:17:59;;;;;;;0.57;0.57;;;7.00;99.90;7.20;102178.00;;;;5113647;28;20237;-70
2022/03/10 01:20:26;;;;;;;3.50;1.37;;;7.10;99.90;7.10;102180.00;;;;5113646;28;20175;-70
2022/03/10 01:22:52;;;;;;;0.40;0.40;;;7.00;99.90;7.20;102160.00;;;;5113341;28;20584;-71
2022/03/10 01:25:19;;;;;;;2.90;2.33;;;7.00;99.90;7.10;102162.00;;;;5096564;28;20179;-71
2022/03/10 01:27:48;;;;;;;4.03;3.83;;;7.00;99.90;7.00;102163.00;;;;5096254;28;20572;-70
2022/03/10 01:30:19;;;;;;;3.00;2.53;;;6.90;99.90;6.80;102136.00;;;;5113558;28;20179;-71
2022/03/10 01:32:48;;;;;;;3.10;2.63;;;6.90;99.90;6.90;102159.00;;;;5113168;28;20219;-70
2022/03/10 01:35:18;;;;;;;2.80;1.97;;;6.90;99.90;6.90;102162.00;;;;5096382;28;20183;-70
2022/03/10 01:37:52;;;;;;;2.80;1.80;;;6.90;99.90;7.10;102162.00;;;;5113300;28;20591;-70
2022/03/10 01:40:21;;;;;;;2.53;1.43;;;7.00;99.90;6.80;102158.00;;;;5096684;28;20183;-71
2022/03/10 01:42:51;;;;;;;1.50;1.50;;;6.90;99.90;6.80;102054.00;;;;5112981;28;20194;-70
2022/03/10 01:45:19;;;;;;;2.77;2.33;;;6.90;99.90;6.90;102154.00;;;;5113696;28;20190;-70
2022/03/10 01:47:48;;;;;;;10.67;4.00;;;6.90;99.90;6.90;102163.00;;;;5112393;28;20278;-70
2022/03/10 01:50:17;;;;;;;3.53;2.00;;;7.00;99.90;7.20;102154.00;;;;5112983;28;20703;-71
2022/03/10 01:52:46;;;;;;;1.87;1.63;;;7.00;99.90;7.00;102150.00;;;;5095909;28;20219;-71
2022/03/10 01:55:20;;;;;;;3.73;3.37;;;7.00;99.90;6.80;102152.00;;;;5096652;28;20701;-70
2022/03/10 01:57:49;;;;;;;6.77;2.30;;;6.90;99.90;7.20;102157.00;;;;5113070;28;20187;-70
2022/03/10 02:00:19;;;;;;;3.73;2.67;;;7.00;99.90;7.20;102102.00;;;;5096398;28;20597;-70
2022/03/10 02:02:47;;;;;;;1.00;1.00;;;7.00;99.90;6.90;102157.00;;;;5095969;28;20212;-70
2022/03/10 02:05:18;;;;;;;0.77;0.77;;;7.00;99.90;7.20;102104.00;;;;5095311;28;20650;-70
2022/03/10 02:10:32;;;;;;;1.07;1.07;;;6.90;99.90;6.80;102152.00;;;;5112985;28;20190;-71
2022/03/10 02:12:58;;;;;;;2.30;2.20;;;6.80;99.90;7.20;102141.00;;;;5112696;28;20297;-70
2022/03/10 02:18:19;;;;;;;0.30;0.30;;;7.00;99.90;6.80;102152.00;;;;5112953;28;20199;-70
2022/03/10 02:20:48;;;;;;;5.00;2.40;;;6.90;99.90;6.60;102119.00;;;;5095833;28;20177;-70
2022/03/10 02:23:18;;;;;;;1.13;1.13;;;6.80;99.90;6.70;102126.00;;;;5095772;28;20179;-70
2022/03/10 02:25:46;;;;;;;1.93;1.73;;;6.70;99.90;6.70;102079.00;;;;5112803;28;20180;-70
2022/03/10 02:28:18;;;;;;;1.80;1.70;;;6.70;99.90;6.50;102132.00;;;;5113814;28;20525;-70
2022/03/10 02:30:47;;;;;;;0.20;0.20;;;6.60;99.90;6.50;102145.00;;;;5112542;28;20214;-70
2022/03/10 02:33:15;;;;;;;0.50;0.50;;;6.60;99.90;6.40;102139.00;;;;5112595;28;20236;-70
2022/03/10 02:35:41;;;;;;;0.63;0.63;;;6.60;99.90;6.30;102076.00;;;;5112257;28;20176;-69
2022/03/10 02:38:17;;;;;;;0.63;0.63;;;6.50;99.90;6.50;102129.00;;;;5095515;28;20266;-70
2022/03/10 02:40:49;;;;;;;2.43;2.23;;;6.60;99.90;6.50;102151.00;;;;5095621;28;20692;-70
2022/03/10 02:43:24;;;;;;;2.10;1.90;;;6.60;99.90;6.50;102135.00;;;;5095516;28;20191;-70
2022/03/10 02:45:51;;;;;;;0.67;0.67;;;6.60;99.90;6.50;102134.00;;;;5095957;28;20184;-69
2022/03/10 02:48:17;;;;;;;1.30;1.30;;;6.50;99.90;6.50;102134.00;;;;5095286;28;20187;-70
2022/03/10 02:50:46;;;;;;;0.20;0.20;;;6.50;99.90;6.40;102143.00;;;;5112512;28;20179;-70
2022/03/10 02:53:15;;;;;;;0.67;0.67;;;6.40;99.90;6.40;102133.00;;;;5095100;28;20210;-70
2022/03/10 02:55:43;;;;;;;0.63;0.63;;;6.40;99.90;6.40;102128.00;;;;5112668;28;20182;-70
2022/03/10 02:58:14;;;;;;;1.30;0.70;;;6.40;99.90;6.20;102094.00;;;;5095335;28;20184;-70
2022/03/10 03:00:40;;;;;;;3.20;3.00;;;6.30;99.90;6.30;102130.00;;;;5112368;28;20605;-69
2022/03/10 03:03:11;;;;;;;1.73;1.70;;;6.30;99.90;6.30;102097.00;;;;5112515;28;20174;-70
2022/03/10 03:05:40;;;;;;;0.83;0.83;;;6.30;99.90;6.40;102121.00;;;;5095156;28;20184;-70
2022/03/10 03:08:11;;;;;;;6.77;6.37;;;6.30;99.90;6.10;102125.00;;;;5113416;28;20725;-69
2022/03/10 03:10:37;;;;;;;0.20;0.20;;;6.20;99.90;5.90;102072.00;;;;5112246;28;20180;-70
2022/03/10 03:13:06;;;;;;;0.60;0.60;;;6.10;99.90;6.00;102126.00;;;;5111915;28;20221;-70
2022/03/10 03:15:32;;;;;;;0.90;0.90;;;6.10;99.90;6.10;102114.00;;;;5112238;28;20181;-70
2022/03/10 03:18:01;;;;;;;2.43;1.03;;;6.10;99.90;6.20;102117.00;;;;5095379;28;20190;-69
2022/03/10 03:20:27;;;;;;;1.17;0.80;;;6.10;99.90;5.90;102092.00;;;;5115869;28;20183;-69
2022/03/10 03:22:58;;;;;;;2.57;2.37;;;6.10;99.90;5.70;102136.00;;;;5116590;28;20194;-69
2022/03/10 03:25:28;;;;;;;3.67;3.20;;;6.00;99.90;5.80;102130.00;;;;5115932;28;20210;-70
2022/03/10 03:27:56;;;;;;;0.33;0.33;;;5.90;99.90;6.10;102129.00;;;;5115843;28;20172;-70
2022/03/10 03:30:24;;;;;;;0.60;0.60;;;6.00;99.90;6.20;102131.00;;;;5115112;28;20192;-70
2022/03/10 03:32:53;;;;;;;1.83;1.77;;;6.00;99.90;6.00;102141.00;;;;5098796;28;20258;-70
2022/03/10 03:35:21;;;;;;;0.93;0.83;;;6.00;99.90;5.90;102131.00;;;;5116158;28;20291;-70
2022/03/10 03:37:49;;;;;;;0.83;0.80;;;5.90;99.90;5.90;102125.00;;;;5115795;28;20182;-70
2022/03/10 03:40:20;;;;;;;8.00;4.13;;;5.90;99.90;5.90;102110.00;;;;5098546;28;20631;-70
2022/03/10 03:42:46;;;;;;;2.93;2.73;;;5.80;99.90;6.00;102122.00;;;;5115696;28;20189;-71
2022/03/10 03:45:15;;;;;;;5.50;1.93;;;5.90;99.90;5.90;102130.00;;;;5115368;28;20190;-69
2022/03/10 03:47:44;;;;;;;2.47;2.23;;;5.90;99.90;5.90;102112.00;;;;5115354;28;20621;-70
2022/03/10 03:50:11;;;;;;;6.37;5.97;;;5.90;99.90;5.90;102129.00;;;;5115314;28;20620;-69
2022/03/10 03:52:40;;;;;;;3.43;3.13;;;5.90;99.90;5.80;102137.00;;;;5098563;28;20210;-70
2022/03/10 03:55:09;;;;;;;0.87;0.87;;;5.90;99.90;5.70;102118.00;;;;5115401;28;20179;-70
2022/03/10 03:57:45;;;;;;;1.47;1.40;;;5.80;99.90;5.70;102131.00;;;;5097946;28;20176;-70
2022/03/10 04:00:18;;;;;;;7.30;5.73;;;5.80;99.90;5.60;102134.00;;;;5115185;28;20176;-69
2022/03/10 04:02:52;;;;;;;1.57;1.47;;;5.70;99.90;5.60;102126.00;;;;5116406;28;20167;-70
2022/03/10 04:05:20;;;;;;;0.97;0.97;;;5.70;99.90;5.80;102128.00;;;;5115314;28;20182;-70
2022/03/10 04:07:48;;;;;;;2.63;1.67;;;5.80;99.90;5.60;102068.00;;;;5115000;28;20190;-70
2022/03/10 04:10:14;;;;;;;2.60;2.40;;;5.70;99.90;5.60;102122.00;;;;5098301;28;20213;-70
2022/03/10 04:12:43;;;;;;;1.47;0.90;;;5.70;99.90;5.70;102121.00;;;;5113955;28;20688;-70
2022/03/10 04:15:15;;;;;;;4.83;4.47;;;5.80;99.90;5.90;102127.00;;;;5114689;28;20179;-69
2022/03/10 04:17:43;;;;;;;3.80;3.03;;;5.90;99.90;5.60;102128.00;;;;5114821;28;20179;-70
2022/03/10 04:20:13;;;;;;;0.93;0.93;;;5.80;99.90;5.60;102121.00;;;;5097694;28;20182;-69
2022/03/10 04:22:42;;;;;;;2.43;1.50;;;5.70;99.90;5.70;102115.00;;;;5114858;28;20207;-71
2022/03/10 04:25:14;;;;;;;5.73;3.97;;;5.70;99.90;5.50;102108.00;;;;5114884;28;20205;-71
2022/03/10 04:27:42;;;;;;;1.30;1.27;;;5.70;99.90;5.50;102114.00;;;;5115135;28;20172;-70
2022/03/10 04:30:09;;;;;;;1.90;1.60;;;5.70;99.90;5.80;102120.00;;;;5097217;28;20185;-70
2022/03/10 04:32:46;;;;;;;3.13;2.83;;;5.70;99.90;5.70;102078.00;;;;5114401;28;20301;-70
2022/03/10 04:35:16;;;;;;;4.33;3.30;;;5.80;99.90;5.60;102116.00;;;;5114523;28;20212;-70
2022/03/10 04:37:48;;;;;;;2.63;2.40;;;5.70;99.90;5.40;102132.00;;;;5114331;28;20187;-70
2022/03/10 04:40:23;;;;;;;0.60;0.60;;;5.80;99.90;5.40;102107.00;;;;5115743;28;20573;-68
2022/03/10 04:42:50;;;;;;;0.83;0.83;;;5.70;99.90;5.50;102117.00;;;;5114286;28;20241;-68
2022/03/10 04:45:22;;;;;;;0.50;0.50;;;5.60;99.90;5.30;102111.00;;;;5114463;28;20542;-68
2022/03/10 04:47:51;;;;;;;0.70;0.70;;;5.60;99.90;5.30;102107.00;;;;5097733;28;20212;-69
2022/03/10 04:50:18;;;;;;;3.00;2.83;;;5.50;99.90;5.30;102058.00;;;;5114560;28;20182;-69
2022/03/10 04:52:50;;;;;;;0.90;0.90;;;5.50;99.90;5.30;102098.00;;;;5115544;28;20528;-70
2022/03/10 04:55:15;;;;;;;1.33;1.33;;;5.50;99.90;5.70;102113.00;;;;5114572;28;20272;-70
2022/03/10 04:57:43;;;;;;;2.40;2.20;;;5.60;99.90;5.60;102121.00;;;;5115567;28;20636;-69
2022/03/10 05:00:14;;;;;;;1.33;1.33;;;5.70;99.90;5.60;102063.00;;;;5113778;28;20196;-69
2022/03/10 05:02:45;;;;;;;2.07;1.97;;;5.70;99.90;5.50;102105.00;;;;5113688;28;20181;-69
2022/03/10 05:05:18;;;;;;;1.37;1.27;;;5.70;99.90;5.30;102068.00;;;;5097527;28;20185;-69
2022/03/10 05:07:49;;;;;;;2.00;1.90;;;5.60;99.90;4.90;102108.00;;;;5114893;28;20186;-69
2022/03/10 05:10:21;;;;;;;3.23;3.13;;;5.50;99.90;5.20;102053.00;;;;5097287;28;20177;-69
2022/03/10 05:12:57;;;;;;;1.53;1.53;;;5.40;99.90;5.00;102099.00;;;;5113380;28;20246;-68
2022/03/10 05:15:31;;;;;;;2.63;1.80;;;5.30;99.90;5.50;102102.00;;;;5096921;28;20188;-70
2022/03/10 05:18:02;;;;;;;0.60;0.60;;;5.40;99.90;5.20;102093.00;;;;5113998;28;20179;-69
2022/03/10 05:20:32;;;;;;;2.67;2.47;;;5.30;99.90;5.00;102090.00;;;;5096985;28;20188;-69
2022/03/10 05:23:01;;;;;;;7.60;4.63;;;5.30;99.90;4.90;102097.00;;;;5113566;28;20183;-69
2022/03/10 05:25:34;;;;;;;10.90;10.10;;;5.20;99.90;4.90;102100.00;;;;5113655;28;20179;-69
2022/03/10 05:28:02;;;;;;;4.43;2.30;;;5.10;99.90;4.80;102087.00;;;;5096205;28;20194;-69
2022/03/10 05:30:29;;;;;;;6.73;2.60;;;5.10;99.90;4.90;102098.00;;;;5113883;28;20261;-69
2022/03/10 05:32:55;;;;;;;3.30;2.40;;;5.10;99.90;4.80;102083.00;;;;5113188;28;20212;-69
2022/03/10 05:35:26;;;;;;;2.73;1.63;;;5.10;99.90;4.90;102030.00;;;;5113802;28;20180;-69
2022/03/10 05:37:52;;;;;;;2.80;2.60;;;5.00;99.90;4.80;102077.00;;;;5097000;28;20184;-69
2022/03/10 05:40:20;;;;;;;1.37;1.27;;;5.10;99.90;4.70;102065.00;;;;5096373;28;20183;-69
2022/03/10 05:42:51;;;;;;;2.83;2.70;;;5.00;99.90;4.70;102061.00;;;;5112482;28;20645;-69
2022/03/10 05:45:20;;;;;;;1.43;1.33;;;5.00;99.90;4.60;102079.00;;;;5113256;28;20190;-69
2022/03/10 05:47:59;;;;;;;1.23;1.13;;;5.00;99.90;4.70;102075.00;;;;5113187;28;20514;-69
2022/03/10 05:50:26;;;;;;;1.03;1.00;;;5.00;99.90;4.80;102080.00;;;;5096237;28;20176;-69
2022/03/10 05:52:53;;;;;;;11.60;6.10;;;5.10;99.90;4.60;102079.00;;;;5095844;28;20203;-68
2022/03/10 05:55:20;;;;;;;3.67;3.40;;;4.90;99.90;4.40;102077.00;;;;5113237;28;20251;-69
2022/03/10 05:57:46;;;;;;;1.63;1.53;;;4.80;99.90;4.20;102070.00;;;;5113994;28;20233;-69
2022/03/10 06:00:18;;;;;;;2.73;2.00;;;4.80;99.90;4.20;102077.00;;;;5096097;28;20184;-69
2022/03/10 06:02:44;;;;;;;2.67;2.50;;;4.70;99.90;4.20;102083.00;;;;5096239;28;20180;-71
2022/03/10 06:05:13;;;;;;;2.93;2.50;;;4.70;99.90;4.50;102020.00;;;;5095581;28;20540;-69
2022/03/10 06:07:44;;;;;;;1.47;1.37;;;4.80;99.90;4.40;102023.00;;;;5112958;28;20204;-70
2022/03/10 06:10:12;;;;;;;2.33;2.10;;;4.80;99.90;4.50;102079.00;;;;5112875;28;20179;-68
2022/03/10 06:12:40;;;;;;;6.93;4.10;;;4.80;99.90;4.40;102033.00;;;;5112206;28;20212;-69
2022/03/10 06:15:12;;;;;;;4.83;2.33;;;4.70;99.90;4.40;102071.00;;;;5112527;28;20653;-68
2022/03/10 06:17:41;;;;;;;2.60;2.40;;;4.70;99.90;4.30;102070.00;;;;5112725;28;20183;-69
2022/03/10 06:20:14;;;;;;;3.30;3.10;;;4.70;99.90;4.50;102082.00;;;;5112543;28;20161;-69
2022/03/10 06:22:41;;;;;;;2.00;1.90;;;4.70;99.90;4.40;102071.00;;;;5112758;28;20266;-70
2022/03/10 06:25:10;;;;;;;10.57;3.13;;;4.80;99.90;4.20;102064.00;;;;5112479;28;20184;-69
2022/03/10 06:27:38;;;;;;;2.33;1.80;;;4.70;99.90;4.40;102071.00;;;;5095720;28;20183;-69
2022/03/10 06:30:05;;;;;;;1.30;1.30;;;4.80;99.90;4.20;102062.00;;;;5112508;28;20642;-69
2022/03/10 06:32:33;;;;;;;2.60;1.93;;;4.70;99.90;4.40;102013.00;;;;5113528;28;20224;-69
2022/03/10 06:35:05;;;;;;;3.03;1.73;;;4.70;99.90;4.60;102078.00;;;;5112685;28;20176;-69
2022/03/10 06:37:36;;;;;;;7.80;2.37;;;4.90;99.90;4.80;102075.00;;;;5112442;28;20173;-69
2022/03/10 06:40:26;;;;;;;3.13;2.83;;;5.00;99.90;4.70;102080.00;;;;5113485;28;20176;-69
2022/03/10 06:44:01;;;;;;;4.03;3.40;;;5.10;99.90;4.80;102089.00;;;;5112728;28;20578;-70
2022/03/10 06:46:33;;;;;;;2.27;2.07;;;5.10;99.90;4.80;102081.00;;;;5112667;28;20191;-68
2022/03/10 06:48:58;;;;;;;4.23;3.40;;;5.20;99.90;5.00;102073.00;;;;5112610;28;20187;-68
2022/03/10 06:51:27;;;;;;;2.13;1.70;;;5.30;99.90;4.80;102039.00;;;;5095203;28;20209;-69
2022/03/10 06:54:00;;;;;;;2.07;1.97;;;5.30;99.90;5.00;102078.00;;;;5114740;28;20202;-69
2022/03/10 06:56:29;;;;;;;0.70;0.70;;;5.30;99.90;5.30;102088.00;;;;5115976;28;20215;-69
2022/03/10 06:58:58;;;;;;;5.67;4.13;;;5.60;99.90;5.50;102084.00;;;;5099701;28;20189;-69
2022/03/10 07:01:23;;;;;;;1.03;1.03;;;5.60;99.90;5.70;102098.00;;;;5099510;28;20559;-69
2022/03/10 07:03:51;;;;;;;3.17;2.20;;;5.80;99.90;6.00;102103.00;;;;5117982;28;20187;-69
2022/03/10 07:06:20;;;;;;;5.17;3.90;;;6.00;99.90;5.30;102054.00;;;;5099473;28;20186;-69
2022/03/10 07:08:53;;;;;;;1.30;1.30;;;5.90;99.90;6.00;102111.00;;;;5116035;28;20176;-70
2022/03/10 07:11:20;;;;;;;1.30;1.30;;;6.10;99.90;6.50;102120.00;;;;5099237;28;20184;-69
2022/03/10 07:13:48;;;;;;;1.17;1.17;;;6.40;99.90;6.80;102133.00;;;;5098956;28;20191;-70
2022/03/10 07:16:18;;;;;;;2.40;1.57;;;6.70;99.90;6.40;102076.00;;;;5116303;28;20207;-69
2022/03/10 07:18:50;;;;;;;0.43;0.43;;;6.80;99.90;6.50;102134.00;;;;5116336;28;20180;-69
2022/03/10 07:21:27;;;;;;;6.63;3.90;;;6.80;99.90;6.90;102091.00;;;;5115898;28;20173;-69
2022/03/10 07:23:55;;;;;;;2.43;2.30;;;7.00;99.90;6.70;102142.00;;;;5115885;28;20176;-69
2022/03/10 07:26:21;;;;;;;6.30;3.57;;;7.10;99.90;7.10;102113.00;;;;5115597;28;20275;-69
2022/03/10 07:28:49;;;;;;;1.07;1.07;;;7.20;99.90;7.20;102145.00;;;;5116078;28;20267;-69
2022/03/10 07:31:18;;;;;;;0.60;0.60;;;7.30;99.90;7.00;102141.00;;;;5115760;28;20176;-70
2022/03/10 07:33:44;;;;;;;2.00;1.17;;;7.30;99.90;6.80;102128.00;;;;5115952;28;20175;-69
2022/03/10 07:36:10;;;;;;;4.80;3.43;;;7.30;99.90;7.50;102096.00;;;;5115685;28;20180;-69
2022/03/10 07:38:45;;;;;;;2.67;2.43;;;7.50;99.90;7.70;102158.00;;;;5116657;28;20181;-70
2022/03/10 07:41:16;;;;;;;0.97;0.93;;;7.70;99.90;8.40;102176.00;;;;5115736;28;20298;-70
2022/03/10 07:43:47;;;;;;;8.57;5.07;;;8.20;99.90;8.80;102183.00;;;;5115670;28;20177;-70
2022/03/10 07:46:16;;;;;;;0.30;0.30;;;8.60;99.90;9.10;102190.00;;;;5115517;28;20185;-70
2022/03/10 07:48:50;;;;;;;3.53;3.20;;;9.00;99.90;9.60;102207.00;;;;5098531;28;20213;-70
2022/03/10 07:51:17;;;;;;;5.33;3.57;;;9.40;99.90;9.40;102208.00;;;;5115106;28;20178;-71
2022/03/10 07:53:46;;;;;;;5.33;3.33;;;9.40;99.90;9.20;102198.00;;;;5115495;28;20182;-71
2022/03/10 07:56:15;;;;;;;1.60;1.50;;;9.40;99.90;9.20;102206.00;;;;5114776;28;20202;-71
2022/03/10 07:58:49;;;;;;;0.93;0.87;;;9.50;99.90;9.50;102209.00;;;;5098152;28;20233;-71
2022/03/10 08:01:20;;;;;;;3.70;3.07;;;9.80;99.90;10.10;102205.00;;;;5098235;28;20184;-71
2022/03/10 08:03:53;;;;;;;2.33;1.27;;;10.00;99.90;9.80;102210.00;;;;5098315;28;20188;-71
2022/03/10 08:06:19;;;;;;;0.40;0.40;;;9.90;99.90;11.10;102232.00;;;;5115426;28;20200;-69
2022/03/10 08:08:48;;;;;;;4.13;3.07;;;10.60;99.90;11.40;102236.00;;;;5114962;28;20713;-71
2022/03/10 08:11:18;;;;;;;2.60;1.57;;;11.10;99.90;11.70;102256.00;;;;5097969;28;20236;-70
2022/03/10 08:13:56;;;;;;;2.57;2.33;;;11.40;99.90;11.60;102225.00;;;;5115058;28;20506;-70
2022/03/10 08:16:24;;;;;;;3.87;3.33;;;11.60;99.90;11.20;102255.00;;;;5114791;28;20191;-70
2022/03/10 08:18:53;;;;;;;1.10;1.10;;;11.30;99.90;12.00;102270.00;;;;5098512;28;20240;-70
2022/03/10 08:21:24;;;;;;;1.03;0.93;;;11.60;99.90;11.20;102268.00;;;;5114588;28;20180;-70
2022/03/10 08:23:52;;;;;;;0.90;0.83;;;11.40;99.90;12.10;102273.00;;;;5114840;28;20513;-69
2022/03/10 08:26:19;;;;;;;11.67;5.33;;;11.70;99.90;12.10;102276.00;;;;5115855;28;20175;-69
2022/03/10 08:28:51;;;;;;;7.90;7.30;;;12.10;99.90;11.80;102278.00;;;;5114728;28;20160;-70
2022/03/10 08:31:20;;;;;;;5.40;4.60;;;12.00;99.90;12.90;102291.00;;;;5098348;28;20236;-70
2022/03/10 08:33:50;;;;;;;6.47;1.70;;;12.40;99.90;12.90;102197.00;;;;5114531;28;20190;-71
2022/03/10 08:36:19;;;;;;;0.67;0.67;;;12.60;99.90;12.50;102204.00;;;;5114250;28;20572;-70
2022/03/10 08:38:48;;;;;;;3.40;1.83;;;12.60;99.90;12.70;102206.00;;;;5097888;28;20180;-70
2022/03/10 08:41:29;;;;;;;1.80;1.57;;;12.80;99.90;12.90;102200.00;;;;5114465;28;20179;-70
2022/03/10 08:43:55;;;;;;;3.20;2.70;;;12.70;99.90;11.90;102207.00;;;;5114282;28;20224;-69
2022/03/10 08:46:24;;;;;;;0.73;0.73;;;12.60;99.90;12.90;102202.00;;;;5097378;28;20184;-69
2022/03/10 08:48:55;;;;;;;0.40;0.40;;;12.80;99.90;13.20;102164.00;;;;5114475;28;20162;-70
2022/03/10 08:51:21;;;;;;;7.57;6.90;;;13.20;99.90;12.70;102206.00;;;;5096747;28;20179;-69
2022/03/10 08:53:50;;;;;;;1.57;1.47;;;13.00;99.90;12.60;102214.00;;;;5114083;28;20183;-70
2022/03/10 08:56:18;;;;;;;1.77;1.67;;;12.90;99.90;13.50;102198.00;;;;5115377;27;20176;-68
2022/03/10 08:58:49;;;;;;;3.80;2.50;;;13.30;99.90;13.10;102209.00;;;;5114255;28;20206;-69
2022/03/10 09:01:15;;;;;;;1.20;1.10;;;13.50;99.90;13.30;102165.00;;;;5097355;28;20174;-69
2022/03/10 09:03:41;;;;;;;3.80;3.50;;;13.40;99.90;14.20;102195.00;;;;5113877;28;20217;-69
2022/03/10 09:06:09;;;;;;;1.70;1.20;;;13.80;99.90;14.70;102195.00;;;;5096940;28;20285;-70
2022/03/10 09:08:36;;;;;;;2.10;1.93;;;14.20;99.90;13.90;102193.00;;;;5097341;28;20541;-69
2022/03/10 09:11:07;;;;;;;3.77;1.40;;;14.30;99.90;14.30;102198.00;;;;5114025;28;20178;-69
2022/03/10 09:13:41;;;;;;;1.80;1.67;;;14.40;99.90;14.80;102172.00;;;;5113633;28;20677;-70
2022/03/10 09:16:06;;;;;;;0.73;0.50;;;14.50;99.90;14.50;102185.00;;;;5096472;28;20218;-70
2022/03/10 09:18:34;;;;;;;19.97;18.53;;;14.70;99.90;15.20;102169.00;;;;5096521;28;20274;-70
2022/03/10 09:21:05;;;;;;;5.60;2.73;;;14.90;99.90;14.40;102194.00;;;;5113410;28;20205;-70
2022/03/10 09:23:31;;;;;;;4.63;3.73;;;14.70;99.90;15.50;102178.00;;;;5096952;28;20637;-70
2022/03/10 09:25:59;;;;;;;0.47;0.47;;;15.10;99.90;15.90;102171.00;;;;5113775;28;20199;-70
2022/03/10 09:28:30;;;;;;;5.30;4.90;;;15.40;99.90;15.50;102165.00;;;;5113019;28;20195;-70
2022/03/10 09:31:02;;;;;;;2.13;1.93;;;15.50;99.90;15.80;102152.00;;;;5113497;28;20183;-70
2022/03/10 09:33:33;;;;;;;2.63;1.80;;;15.50;99.90;15.50;102150.00;;;;5113309;28;20190;-70
2022/03/10 09:36:02;;;;;;;17.10;6.17;;;15.40;99.90;15.20;102173.00;;;;5096905;28;20293;-70
2022/03/10 09:38:32;;;;;;;3.47;2.57;;;15.30;99.90;15.60;102165.00;;;;5113384;28;20691;-70
2022/03/10 09:41:03;;;;;;;0.93;0.80;;;15.30;99.90;15.10;102158.00;;;;5113796;28;20183;-70
2022/03/10 09:43:33;;;;;;;8.77;3.17;;;15.40;99.90;15.40;102156.00;;;;5112978;28;20206;-70
2022/03/10 09:46:00;;;;;;;5.93;2.87;;;15.30;99.90;16.10;102154.00;;;;5113215;28;20192;-70
2022/03/10 09:48:30;;;;;;;1.37;0.83;;;15.70;99.90;16.20;102151.00;;;;5112731;28;20628;-71
2022/03/10 09:50:56;;;;;;;0.77;0.77;;;16.00;99.90;15.10;102149.00;;;;5096329;28;20235;-70
2022/03/10 09:53:31;;;;;;;2.53;1.70;;;15.60;99.90;15.50;102155.00;;;;5095913;28;20180;-70
2022/03/10 09:56:00;;;;;;;1.07;1.07;;;15.60;99.90;15.80;102148.00;;;;5096644;28;20177;-70
2022/03/10 09:58:31;;;;;;;1.10;1.10;;;15.50;99.90;15.90;102152.00;;;;5095641;28;20235;-71
2022/03/10 10:01:01;;;;;;;3.57;3.27;;;15.60;99.90;15.60;102149.00;;;;5113202;28;20190;-70
2022/03/10 10:03:30;;;;;;;4.23;3.70;;;15.60;99.90;15.50;102147.00;;;;5112189;28;20214;-69
2022/03/10 10:06:05;;;;;;;0.17;0.17;;;15.60;99.90;16.30;102139.00;;;;5095916;28;20182;-70
2022/03/10 10:08:34;;;;;;;1.30;1.23;;;15.90;99.90;16.70;102134.00;;;;5095990;28;20196;-69
2022/03/10 10:11:06;;;;;;;5.13;4.30;;;16.40;99.90;16.60;102120.00;;;;5112709;28;20558;-69
2022/03/10 10:13:48;;;;;;;1.27;1.13;;;16.50;99.90;17.20;102121.00;;;;5095894;28;20181;-70
2022/03/10 10:16:22;;;;;;;4.87;3.90;;;16.60;99.90;17.00;102112.00;;;;5112787;28;20182;-70
2022/03/10 10:18:58;;;;;;;2.27;2.13;;;16.80;99.90;16.40;102112.00;;;;5095481;28;20187;-70
2022/03/10 10:33:15;;;;;;;1.70;1.60;;;16.60;99.90;17.00;102067.00;;;;5113223;27;1318190;-70
2022/03/10 10:35:46;;;;;;;1.87;1.77;;;16.90;99.90;17.30;102100.00;;;;5113095;28;20192;-71
2022/03/10 10:38:31;;;;;;;2.77;2.33;;;17.20;99.90;17.50;102088.00;;;;5113341;28;20190;-70
2022/03/10 10:41:23;;;;;;;4.40;3.73;;;17.30;99.90;17.30;102098.00;;;;5130487;28;20237;-71
2022/03/10 10:43:54;;;;;;;4.47;3.50;;;17.30;99.90;17.20;102091.00;;;;5113311;28;20689;-71
2022/03/10 10:46:43;;;;;;;7.50;2.70;;;17.10;99.90;16.60;102104.00;;;;5131016;27;20619;-69
2022/03/10 10:49:23;;;;;;;2.23;1.90;;;16.90;99.90;16.90;102109.00;;;;5130777;27;20200;-69
2022/03/10 10:51:55;;;;;;;2.67;2.20;;;17.00;99.90;17.00;102109.00;;;;5130257;28;20194;-69
2022/03/10 10:54:23;;;;;;;2.47;2.23;;;17.10;99.90;16.90;102096.00;;;;5130126;28;20183;-69
2022/03/10 10:57:05;;;;;;;4.03;2.37;;;17.20;99.90;17.90;102079.00;;;;5129774;28;20182;-70
2022/03/10 10:59:38;;;;;;;4.00;2.90;;;17.60;99.90;17.80;102071.00;;;;5129921;28;20620;-70
2022/03/10 11:02:23;;;;;;;6.17;4.90;;;17.70;99.90;17.10;102089.00;;;;5129517;28;20192;-70
2022/03/10 11:04:52;;;;;;;3.53;1.83;;;17.20;99.90;17.20;102059.00;;;;5112633;28;20644;-69
2022/03/10 11:07:22;;;;;;;8.27;2.93;;;17.10;99.90;17.70;102078.00;;;;5129570;28;20181;-69
2022/03/10 11:09:54;;;;;;;0.57;0.57;;;17.40;99.90;17.10;102086.00;;;;5129719;28;20179;-69
2022/03/10 11:12:23;;;;;;;9.03;5.73;;;17.20;99.90;17.70;102086.00;;;;5113157;28;20212;-70
2022/03/10 11:14:57;;;;;;;2.53;2.10;;;17.50;99.90;17.30;102051.00;;;;5112564;28;20187;-69
2022/03/10 11:17:27;;;;;;;4.70;3.73;;;17.30;99.90;17.50;102078.00;;;;5129563;28;20165;-70
2022/03/10 11:19:56;;;;;;;6.40;4.80;;;17.40;99.90;17.10;102076.00;;;;5129850;28;20170;-70
2022/03/10 11:22:48;;;;;;;2.30;2.13;;;17.40;99.90;17.10;102079.00;;;;5112999;28;20571;-70
2022/03/10 11:25:30;;;;;;;7.30;4.63;;;17.30;99.90;17.40;102071.00;;;;5129402;28;20273;-70
2022/03/10 11:28:28;;;;;;;5.18;3.55;;;17.40;99.90;16.80;102083.00;;;;5130606;27;20219;-71